createdAt,value
2022-12-31T00:00:24.803Z,4.08
2022-12-31T00:03:27.978Z,4.12
2022-12-31T00:06:33.121Z,4.08
2022-12-31T00:09:36.315Z,4.15
2022-12-31T00:12:38.913Z,4.18
2022-12-31T00:15:43.044Z,4.11
2022-12-31T00:18:47.676Z,4.03
2022-12-31T00:21:51.037Z,3.99
2022-12-31T00:24:53.751Z,3.98
2022-12-31T00:27:56.592Z,3.90
2022-12-31T00:31:09.696Z,3.83
2022-12-31T00:34:12.692Z,3.81
2022-12-31T00:37:15.334Z,3.83
2022-12-31T00:40:18.322Z,3.81
2022-12-31T00:43:20.870Z,3.81
2022-12-31T00:46:25.090Z,3.87
2022-12-31T00:49:27.827Z,3.87
2022-12-31T00:52:30.703Z,3.96
2022-12-31T00:55:33.322Z,4.00
2022-12-31T00:58:37.418Z,3.99
2022-12-31T01:01:40.840Z,3.94
2022-12-31T01:04:44.633Z,3.93
2022-12-31T01:07:47.262Z,3.91
2022-12-31T01:11:08.878Z,3.92
2022-12-31T01:14:15.274Z,3.90
2022-12-31T01:17:18.119Z,3.90
2022-12-31T01:20:20.991Z,3.85
2022-12-31T01:23:23.839Z,3.81
2022-12-31T01:26:26.795Z,3.80
2022-12-31T01:29:29.863Z,3.79
2022-12-31T01:32:32.907Z,3.87
2022-12-31T01:35:36.506Z,3.88
2022-12-31T01:38:39.209Z,3.88
2022-12-31T01:41:44.839Z,3.85
2022-12-31T01:44:55.968Z,3.92
2022-12-31T01:48:00.284Z,3.85
2022-12-31T01:51:03.250Z,3.80
2022-12-31T01:54:10.801Z,3.83
2022-12-31T01:57:14.332Z,3.84
2022-12-31T02:00:17.603Z,3.81
2022-12-31T02:03:22.787Z,3.84
2022-12-31T02:06:38.578Z,3.85
2022-12-31T02:09:42.643Z,3.93
2022-12-31T02:12:46.256Z,3.93
2022-12-31T02:16:08.086Z,4.00
2022-12-31T02:19:49.331Z,3.99
2022-12-31T02:23:16.918Z,3.92
2022-12-31T02:27:04.251Z,3.83
2022-12-31T02:30:08.982Z,3.89
2022-12-31T02:33:19.260Z,3.96
2022-12-31T02:36:27.977Z,3.88
2022-12-31T02:39:31.785Z,3.84
2022-12-31T02:42:34.550Z,3.85
2022-12-31T02:45:47.543Z,3.88
2022-12-31T02:49:02.360Z,3.88
2022-12-31T02:52:21.189Z,3.89
2022-12-31T02:55:24.022Z,3.85
2022-12-31T02:58:57.490Z,3.80
2022-12-31T03:02:15.995Z,3.85
2022-12-31T03:05:23.287Z,3.85
2022-12-31T03:08:26.874Z,3.85
2022-12-31T03:11:48.105Z,3.85
2022-12-31T03:14:51.504Z,3.95
2022-12-31T03:18:07.517Z,3.92
2022-12-31T03:21:32.022Z,3.90
2022-12-31T03:24:53.304Z,3.92
2022-12-31T03:27:56.822Z,3.93
2022-12-31T03:31:02.494Z,3.98
2022-12-31T03:34:05.329Z,3.96
2022-12-31T03:37:08.031Z,3.99
2022-12-31T03:40:13.656Z,3.98
2022-12-31T03:43:16.941Z,3.93
2022-12-31T03:46:19.869Z,3.89
2022-12-31T03:49:22.440Z,3.85
2022-12-31T03:52:26.043Z,3.84
2022-12-31T03:55:28.757Z,3.82
2022-12-31T03:58:31.618Z,3.84
2022-12-31T04:01:34.236Z,3.82
2022-12-31T04:04:37.080Z,3.83
2022-12-31T04:07:40.109Z,3.85
2022-12-31T04:10:43.151Z,3.88
2022-12-31T04:13:45.814Z,3.88
2022-12-31T04:16:48.645Z,3.89
2022-12-31T04:19:51.369Z,3.96
2022-12-31T04:22:54.278Z,3.96
2022-12-31T04:25:57.035Z,3.97
2022-12-31T04:28:59.945Z,3.94
2022-12-31T04:32:03.431Z,3.86
2022-12-31T04:35:07.478Z,3.86
2022-12-31T04:38:10.326Z,3.89
2022-12-31T04:41:19.794Z,3.84
2022-12-31T04:44:22.440Z,3.96
2022-12-31T04:47:25.231Z,3.81
2022-12-31T04:50:27.867Z,3.79
2022-12-31T04:53:31.519Z,3.78
2022-12-31T04:56:36.649Z,3.81
2022-12-31T04:59:39.893Z,3.84
2022-12-31T05:02:42.608Z,3.82
2022-12-31T05:05:45.566Z,3.84
2022-12-31T05:08:49.255Z,3.80
2022-12-31T05:11:52.175Z,3.81
2022-12-31T05:14:54.730Z,3.83
2022-12-31T05:17:57.601Z,3.83
2022-12-31T05:21:02.621Z,3.83
2022-12-31T05:24:05.941Z,3.78
2022-12-31T05:27:10.839Z,3.80
2022-12-31T05:30:14.501Z,3.80
2022-12-31T05:33:18.423Z,3.82
2022-12-31T05:36:21.260Z,3.83
2022-12-31T05:39:24.240Z,3.83
2022-12-31T05:42:28.387Z,3.82
2022-12-31T05:45:31.461Z,3.85
2022-12-31T05:48:34.625Z,3.86
2022-12-31T05:51:37.232Z,3.89
2022-12-31T05:54:40.072Z,3.85
2022-12-31T05:57:42.718Z,3.86
2022-12-31T06:00:46.196Z,3.87
2022-12-31T06:03:49.182Z,3.80
2022-12-31T06:06:52.040Z,3.81
2022-12-31T06:09:55.153Z,3.81
2022-12-31T06:12:57.952Z,3.83
2022-12-31T06:16:07.976Z,3.81
2022-12-31T06:19:10.712Z,3.86
2022-12-31T06:22:13.922Z,3.91
2022-12-31T06:25:16.526Z,3.89
2022-12-31T06:28:20.579Z,3.85
2022-12-31T06:31:23.432Z,3.88
2022-12-31T06:34:26.396Z,3.85
2022-12-31T06:37:28.988Z,3.82
2022-12-31T06:40:31.883Z,3.82
2022-12-31T06:43:35.171Z,3.80
2022-12-31T06:46:38.270Z,3.85
2022-12-31T06:49:40.891Z,3.89
2022-12-31T06:52:43.959Z,3.90
2022-12-31T06:55:48.919Z,3.92
2022-12-31T06:58:52.925Z,3.99
2022-12-31T07:02:17.396Z,4.02
2022-12-31T07:05:41.988Z,4.05
2022-12-31T07:09:04.475Z,4.00
2022-12-31T07:12:25.088Z,3.99
2022-12-31T07:16:00.037Z,4.03
2022-12-31T07:19:15.083Z,4.05
2022-12-31T07:22:18.035Z,4.00
2022-12-31T07:25:23.499Z,4.10
2022-12-31T07:28:32.041Z,4.20
2022-12-31T07:32:11.247Z,4.26
2022-12-31T07:36:01.369Z,4.23
2022-12-31T07:39:14.869Z,4.22
2022-12-31T07:42:33.143Z,4.23
2022-12-31T07:45:42.253Z,4.26
2022-12-31T07:48:45.039Z,4.32
2022-12-31T07:51:48.167Z,4.38
2022-12-31T07:54:51.372Z,4.39
2022-12-31T07:58:19.251Z,4.41
2022-12-31T08:01:34.804Z,4.51
2022-12-31T08:04:59.183Z,4.56
2022-12-31T08:08:38.841Z,4.49
2022-12-31T08:11:52.473Z,4.46
2022-12-31T08:14:55.201Z,4.62
2022-12-31T08:17:58.364Z,4.67
2022-12-31T08:21:34.663Z,4.83
2022-12-31T08:24:47.891Z,4.94
2022-12-31T08:28:05.705Z,5.11
2022-12-31T08:31:14.881Z,4.98
2022-12-31T08:34:40.958Z,4.96
2022-12-31T08:37:54.062Z,5.06
2022-12-31T08:41:15.403Z,5.14
2022-12-31T08:44:24.638Z,5.30
2022-12-31T08:48:00.021Z,5.32
2022-12-31T08:51:05.445Z,5.50
2022-12-31T08:54:12.369Z,5.66
2022-12-31T08:57:23.261Z,5.68
2022-12-31T09:00:27.627Z,5.63
2022-12-31T09:03:42.796Z,5.82
2022-12-31T09:06:59.659Z,5.96
2022-12-31T09:10:11.522Z,6.05
2022-12-31T09:13:38.117Z,6.11
2022-12-31T09:16:52.290Z,6.10
2022-12-31T09:19:55.582Z,6.10
2022-12-31T09:22:59.984Z,6.05
2022-12-31T09:26:27.621Z,6.14
2022-12-31T09:29:39.954Z,6.13
2022-12-31T09:33:09.011Z,6.10
2022-12-31T09:36:39.417Z,6.02
2022-12-31T09:39:47.751Z,5.82
2022-12-31T09:43:22.928Z,5.91
2022-12-31T09:46:50.426Z,5.91
2022-12-31T09:50:18.651Z,6.04
2022-12-31T09:53:54.796Z,6.29
2022-12-31T09:57:04.967Z,6.63
2022-12-31T10:00:39.270Z,6.87
2022-12-31T10:04:01.303Z,7.03
2022-12-31T10:07:22.374Z,6.93
2022-12-31T10:10:38.082Z,6.98
2022-12-31T10:13:59.756Z,7.12
2022-12-31T10:17:19.638Z,7.37
2022-12-31T10:20:57.944Z,7.38
2022-12-31T10:24:20.148Z,7.60
2022-12-31T10:27:49.672Z,7.68
2022-12-31T10:31:19.967Z,7.69
2022-12-31T10:34:25.486Z,7.92
2022-12-31T10:37:32.798Z,7.93
2022-12-31T10:41:00.200Z,7.98
2022-12-31T10:44:29.371Z,7.94
2022-12-31T10:48:09.258Z,7.74
2022-12-31T10:51:34.302Z,7.80
2022-12-31T10:54:51.211Z,7.82
2022-12-31T10:58:24.957Z,7.55
2022-12-31T11:01:30.497Z,7.47
2022-12-31T11:04:44.858Z,7.20
2022-12-31T11:07:56.715Z,7.15
2022-12-31T11:11:17.216Z,7.26
2022-12-31T11:14:38.725Z,7.19
2022-12-31T11:18:03.080Z,7.27
2022-12-31T11:21:27.775Z,7.34
2022-12-31T11:24:58.258Z,7.45
2022-12-31T11:28:19.144Z,7.45
2022-12-31T11:31:52.905Z,7.50
2022-12-31T11:35:02.466Z,7.63
2022-12-31T11:38:16.503Z,7.73
2022-12-31T11:41:39.731Z,7.96
2022-12-31T11:45:07.475Z,8.09
2022-12-31T11:48:30.946Z,8.20
2022-12-31T11:52:11.777Z,8.40
2022-12-31T11:55:38.891Z,8.35
2022-12-31T11:58:49.920Z,8.44
2022-12-31T12:02:00.675Z,8.22
2022-12-31T12:05:10.983Z,8.24
2022-12-31T12:08:15.461Z,8.24
2022-12-31T12:11:23.704Z,8.35
2022-12-31T12:14:35.243Z,8.41
2022-12-31T12:17:39.299Z,8.45
2022-12-31T12:20:46.337Z,8.49
2022-12-31T12:23:57.233Z,8.57
2022-12-31T12:26:59.819Z,8.57
2022-12-31T12:30:18.048Z,8.58
2022-12-31T12:33:21.069Z,8.65
2022-12-31T12:36:23.980Z,8.67
2022-12-31T12:39:29.835Z,8.68
2022-12-31T12:42:32.927Z,8.73
2022-12-31T12:45:51.829Z,8.47
2022-12-31T12:48:57.334Z,8.59
2022-12-31T12:52:08.939Z,8.57
2022-12-31T12:55:27.316Z,8.57
2022-12-31T12:59:24.280Z,8.57
2022-12-31T13:02:35.949Z,8.52
2022-12-31T13:05:41.389Z,8.67
2022-12-31T13:08:52.079Z,8.62
2022-12-31T13:12:07.164Z,8.63
2022-12-31T13:15:22.470Z,8.55
2022-12-31T13:18:57.758Z,8.40
2022-12-31T13:22:16.713Z,8.39
2022-12-31T13:25:35.302Z,8.27
2022-12-31T13:28:42.905Z,8.15
2022-12-31T13:31:47.432Z,8.16
2022-12-31T13:34:56.656Z,8.26
2022-12-31T13:38:06.914Z,8.29
2022-12-31T13:41:30.481Z,8.20
2022-12-31T13:45:04.509Z,8.21
2022-12-31T13:48:16.407Z,8.10
2022-12-31T13:51:45.515Z,7.94
2022-12-31T13:55:03.692Z,7.99
2022-12-31T13:58:35.609Z,7.95
2022-12-31T14:01:51.757Z,7.84
2022-12-31T14:05:06.527Z,7.78
2022-12-31T14:08:09.983Z,7.80
2022-12-31T14:11:21.721Z,7.78
2022-12-31T14:14:36.652Z,7.74
2022-12-31T14:18:05.428Z,7.77
2022-12-31T14:21:14.456Z,7.86
2022-12-31T14:24:47.715Z,7.96
2022-12-31T14:27:54.413Z,8.05
2022-12-31T14:31:44.854Z,7.97
2022-12-31T14:35:06.025Z,7.91
2022-12-31T14:38:47.420Z,7.78
2022-12-31T14:42:01.124Z,7.73
2022-12-31T14:45:35.491Z,7.74
2022-12-31T14:48:56.365Z,7.79
2022-12-31T14:52:26.650Z,7.73
2022-12-31T14:55:34.948Z,7.81
2022-12-31T14:58:40.333Z,7.61
2022-12-31T15:01:46.191Z,7.56
2022-12-31T15:04:49.339Z,7.70
2022-12-31T15:07:51.955Z,7.51
2022-12-31T15:11:14.456Z,7.49
2022-12-31T15:14:17.004Z,7.47
2022-12-31T15:17:19.814Z,7.60
2022-12-31T15:20:46.017Z,7.51
2022-12-31T15:23:49.889Z,7.45
2022-12-31T15:26:58.669Z,7.47
2022-12-31T15:30:02.381Z,7.36
2022-12-31T15:33:29.051Z,7.31
2022-12-31T15:36:35.631Z,7.29
2022-12-31T15:39:41.493Z,7.30
2022-12-31T15:42:55.528Z,7.35
2022-12-31T15:45:59.689Z,7.51
2022-12-31T15:49:10.288Z,7.60
2022-12-31T15:52:25.208Z,7.50
2022-12-31T15:55:28.072Z,7.42
2022-12-31T15:58:35.783Z,7.38
2022-12-31T16:01:42.026Z,7.29
2022-12-31T16:04:45.162Z,7.21
2022-12-31T16:07:48.243Z,7.19
2022-12-31T16:10:53.847Z,7.17
2022-12-31T16:13:58.753Z,7.30
2022-12-31T16:17:02.328Z,7.21
2022-12-31T16:20:26.411Z,7.16
2022-12-31T16:23:29.408Z,7.06
2022-12-31T16:26:54.771Z,6.97
2022-12-31T16:30:02.019Z,6.87
2022-12-31T16:33:07.197Z,6.69
2022-12-31T16:36:21.860Z,6.61
2022-12-31T16:39:35.925Z,6.52
2022-12-31T16:42:44.244Z,6.42
2022-12-31T16:45:47.330Z,6.41
2022-12-31T16:48:55.176Z,6.33
2022-12-31T16:52:20.618Z,6.15
2022-12-31T16:55:26.101Z,5.99
2022-12-31T16:58:35.231Z,5.92
2022-12-31T17:01:38.935Z,5.86
2022-12-31T17:04:48.052Z,5.82
2022-12-31T17:07:55.199Z,5.76
2022-12-31T17:10:58.195Z,5.70
2022-12-31T17:14:13.119Z,5.73
2022-12-31T17:17:23.698Z,5.78
2022-12-31T17:20:29.749Z,5.88
2022-12-31T17:23:35.786Z,5.86
2022-12-31T17:26:38.749Z,5.91
2022-12-31T17:29:41.972Z,5.84
2022-12-31T17:32:45.996Z,5.77
2022-12-31T17:35:54.171Z,5.80
2022-12-31T17:39:16.598Z,5.78
2022-12-31T17:42:26.729Z,5.64
2022-12-31T17:45:29.760Z,5.56
2022-12-31T17:48:32.476Z,5.60
2022-12-31T17:51:35.504Z,5.64
2022-12-31T17:54:38.580Z,5.56
2022-12-31T17:57:52.545Z,5.54
2022-12-31T18:00:55.683Z,5.52
2022-12-31T18:03:58.973Z,5.42
2022-12-31T18:07:01.651Z,5.36
2022-12-31T18:10:04.920Z,5.27
2022-12-31T18:13:15.358Z,5.23
2022-12-31T18:16:18.208Z,5.21
2022-12-31T18:19:54.398Z,5.15
2022-12-31T18:22:45.967Z,5.10
2022-12-31T18:25:48.822Z,5.01
2022-12-31T18:28:52.484Z,4.93
2022-12-31T18:31:55.163Z,4.87
2022-12-31T18:34:58.240Z,4.83
2022-12-31T18:38:01.136Z,4.82
2022-12-31T18:41:04.428Z,4.81
2022-12-31T18:44:07.486Z,4.83
2022-12-31T18:47:13.392Z,4.81
2022-12-31T18:50:17.141Z,4.81
2022-12-31T18:53:22.385Z,4.84
2022-12-31T18:56:25.316Z,4.84
2022-12-31T18:59:28.512Z,4.83
2022-12-31T19:02:31.300Z,4.83
2022-12-31T19:05:37.394Z,4.83
2022-12-31T19:08:40.066Z,4.87
2022-12-31T19:11:43.178Z,4.88
2022-12-31T19:14:45.846Z,4.92
2022-12-31T19:17:48.731Z,4.96
2022-12-31T19:20:52.160Z,4.97
2022-12-31T19:23:55.205Z,4.93
2022-12-31T19:26:58.011Z,4.92
2022-12-31T19:30:01.392Z,4.88
2022-12-31T19:33:04.342Z,4.86
2022-12-31T19:36:14.761Z,4.78
2022-12-31T19:39:21.433Z,4.74
2022-12-31T19:42:25.315Z,4.68
2022-12-31T19:45:29.343Z,4.59
2022-12-31T19:48:33.069Z,4.53
2022-12-31T19:51:35.813Z,4.46
2022-12-31T19:54:38.718Z,4.43
2022-12-31T19:57:41.662Z,4.46
2022-12-31T20:00:51.584Z,4.43
2022-12-31T20:03:57.910Z,4.42
2022-12-31T20:07:00.544Z,4.47
2022-12-31T20:10:04.788Z,4.53
2022-12-31T20:13:09.545Z,4.56
2022-12-31T20:16:15.315Z,4.57
2022-12-31T20:19:18.741Z,4.53
2022-12-31T20:22:21.661Z,4.48
2022-12-31T20:25:25.538Z,4.53
2022-12-31T20:28:28.877Z,4.49
2022-12-31T20:31:31.542Z,4.44
2022-12-31T20:34:34.505Z,4.40
2022-12-31T20:37:37.148Z,4.32
2022-12-31T20:40:46.394Z,4.26
2022-12-31T20:43:50.046Z,4.21
2022-12-31T20:46:53.002Z,4.15
2022-12-31T20:50:12.290Z,4.12
2022-12-31T20:53:15.499Z,4.10
2022-12-31T20:56:18.732Z,4.06
2022-12-31T20:59:21.697Z,4.05
2022-12-31T21:02:39.173Z,4.00
2022-12-31T21:05:51.573Z,3.89
2022-12-31T21:08:55.969Z,3.89
2022-12-31T21:12:17.404Z,3.88
2022-12-31T21:15:21.672Z,3.86
2022-12-31T21:18:24.808Z,3.80
2022-12-31T21:21:27.753Z,3.72
2022-12-31T21:24:30.552Z,3.67
2022-12-31T21:27:33.228Z,3.63
2022-12-31T21:30:38.934Z,3.59
2022-12-31T21:33:47.771Z,3.65
2022-12-31T21:36:50.774Z,3.61
2022-12-31T21:39:53.358Z,3.59
2022-12-31T21:42:56.777Z,3.65
2022-12-31T21:46:07.348Z,3.69
2022-12-31T21:49:10.296Z,3.73
2022-12-31T21:52:26.265Z,3.74
2022-12-31T21:55:47.605Z,3.76
2022-12-31T21:59:15.129Z,3.75
2022-12-31T22:02:37.085Z,3.71
2022-12-31T22:05:59.946Z,3.75
2022-12-31T22:09:03.043Z,3.78
2022-12-31T22:12:06.297Z,3.77
2022-12-31T22:15:14.856Z,3.75
2022-12-31T22:18:19.090Z,3.76
2022-12-31T22:21:23.954Z,3.69
2022-12-31T22:24:26.898Z,3.67
2022-12-31T22:27:30.128Z,3.61
2022-12-31T22:30:34.257Z,3.59
2022-12-31T22:33:37.030Z,3.52
2022-12-31T22:36:39.941Z,3.49
2022-12-31T22:39:44.667Z,3.48
2022-12-31T22:42:48.040Z,3.43
2022-12-31T22:45:50.553Z,3.43
2022-12-31T22:48:56.921Z,3.45
2022-12-31T22:52:01.836Z,3.41
2022-12-31T22:55:08.965Z,3.32
2022-12-31T22:58:11.499Z,3.32
2022-12-31T23:01:22.768Z,3.33
2022-12-31T23:04:25.370Z,3.30
2022-12-31T23:07:28.264Z,3.22
2022-12-31T23:10:49.737Z,3.21
2022-12-31T23:14:11.250Z,3.20
2022-12-31T23:17:37.769Z,3.15
2022-12-31T23:20:59.192Z,3.11
2022-12-31T23:24:04.533Z,3.08
2022-12-31T23:27:08.440Z,3.08
2022-12-31T23:30:11.836Z,3.09
2022-12-31T23:33:17.475Z,3.08
2022-12-31T23:36:20.230Z,3.04
2022-12-31T23:39:23.321Z,3.05
2022-12-31T23:42:26.176Z,2.98
2022-12-31T23:45:33.133Z,2.98
2022-12-31T23:48:36.139Z,2.94
2022-12-31T23:51:40.268Z,2.88
2022-12-31T23:54:42.907Z,2.92
2022-12-31T23:57:45.944Z,2.94
